createdAt,value
2024-01-20T00:02:20.878Z,8.00
2024-01-20T00:04:54.429Z,8.10
2024-01-20T00:07:28.139Z,7.70
2024-01-20T00:10:01.488Z,8.10
2024-01-20T00:12:36.192Z,7.50
2024-01-20T00:15:12.500Z,7.10
2024-01-20T00:17:46.718Z,7.70
2024-01-20T00:20:20.865Z,7.60
2024-01-20T00:22:54.497Z,7.60
2024-01-20T00:25:27.892Z,8.20
2024-01-20T00:28:01.923Z,8.20
2024-01-20T00:30:35.665Z,7.70
2024-01-20T00:33:09.869Z,8.40
2024-01-20T00:35:45.773Z,7.90
2024-01-20T00:38:19.335Z,7.80
2024-01-20T00:40:52.819Z,7.90
2024-01-20T00:43:26.257Z,8.30
2024-01-20T00:45:59.570Z,7.50
2024-01-20T00:48:32.976Z,7.80
2024-01-20T00:51:06.901Z,7.70
2024-01-20T00:53:40.321Z,7.50
2024-01-20T00:56:13.731Z,7.40
2024-01-20T00:58:47.149Z,7.70
2024-01-20T01:01:20.610Z,7.90
2024-01-20T01:03:54.450Z,7.60
2024-01-20T01:06:27.858Z,8.10
2024-01-20T01:09:01.167Z,7.30
2024-01-20T01:11:34.589Z,7.70
2024-01-20T01:14:08.004Z,8.60
2024-01-20T01:16:41.562Z,7.30
2024-01-20T01:19:16.802Z,7.60
2024-01-20T01:21:50.124Z,7.20
2024-01-20T01:24:23.428Z,7.90
2024-01-20T01:26:56.787Z,7.50
2024-01-20T01:29:30.203Z,7.10
2024-01-20T01:32:03.773Z,6.90
2024-01-20T01:34:37.141Z,7.20
2024-01-20T01:37:10.686Z,7.50
2024-01-20T01:39:44.149Z,7.20
2024-01-20T01:42:17.482Z,7.30
2024-01-20T01:44:50.771Z,7.30
2024-01-20T01:47:25.087Z,7.90
2024-01-20T01:49:58.741Z,7.20
2024-01-20T01:52:33.328Z,7.10
2024-01-20T01:55:07.733Z,7.30
2024-01-20T01:57:43.412Z,7.10
2024-01-20T02:00:17.277Z,7.10
2024-01-20T02:02:50.723Z,7.00
2024-01-20T02:05:24.337Z,7.00
2024-01-20T02:07:59.464Z,7.20
2024-01-20T02:10:33.776Z,7.20
2024-01-20T02:13:07.993Z,6.70
2024-01-20T02:15:42.689Z,6.80
2024-01-20T02:18:16.328Z,6.80
2024-01-20T02:20:49.762Z,6.90
2024-01-20T02:23:23.189Z,7.50
2024-01-20T02:25:56.666Z,7.30
2024-01-20T02:28:29.997Z,6.60
2024-01-20T02:31:03.283Z,7.00
2024-01-20T02:33:36.617Z,6.40
2024-01-20T02:36:10.681Z,6.60
2024-01-20T02:38:43.997Z,6.40
2024-01-20T02:41:17.374Z,6.50
2024-01-20T02:43:50.744Z,6.90
2024-01-20T02:46:24.002Z,7.30
2024-01-20T02:48:57.516Z,6.40
2024-01-20T02:51:30.950Z,6.60
2024-01-20T02:54:04.527Z,6.50
2024-01-20T02:56:37.851Z,6.60
2024-01-20T02:59:11.209Z,6.10
2024-01-20T03:01:44.496Z,5.90
2024-01-20T03:04:17.995Z,6.40
2024-01-20T03:06:51.423Z,7.00
2024-01-20T03:09:24.911Z,6.80
2024-01-20T03:11:58.336Z,6.30
2024-01-20T03:14:31.680Z,5.80
2024-01-20T03:17:05.146Z,6.30
2024-01-20T03:19:38.548Z,6.20
2024-01-20T03:22:11.905Z,6.40
2024-01-20T03:24:45.259Z,6.40
2024-01-20T03:27:20.700Z,6.30
2024-01-20T03:29:54.130Z,6.20
2024-01-20T03:32:27.456Z,6.30
2024-01-20T03:35:00.960Z,5.60
2024-01-20T03:37:34.266Z,5.20
2024-01-20T03:40:09.853Z,6.20
2024-01-20T03:42:43.192Z,5.70
2024-01-20T03:45:16.742Z,5.70
2024-01-20T03:47:50.151Z,5.70
2024-01-20T03:50:23.811Z,5.60
2024-01-20T03:52:57.165Z,6.20
2024-01-20T03:55:30.440Z,5.50
2024-01-20T03:58:03.823Z,5.80
2024-01-20T04:00:37.509Z,5.70
2024-01-20T04:03:10.900Z,5.40
2024-01-20T04:05:44.362Z,5.80
2024-01-20T04:08:17.790Z,5.80
2024-01-20T04:10:51.697Z,5.40
2024-01-20T04:13:24.997Z,5.10
2024-01-20T04:15:58.568Z,5.20
2024-01-20T04:18:32.002Z,5.30
2024-01-20T04:21:07.172Z,5.80
2024-01-20T04:23:40.575Z,5.40
2024-01-20T04:26:13.969Z,4.80
2024-01-20T04:28:47.300Z,5.50
2024-01-20T04:31:20.757Z,5.70
2024-01-20T04:33:54.762Z,5.30
2024-01-20T04:36:28.415Z,5.30
2024-01-20T04:39:01.870Z,5.00
2024-01-20T04:41:35.194Z,5.10
2024-01-20T04:44:08.816Z,5.40
2024-01-20T04:46:42.130Z,5.90
2024-01-20T04:49:15.752Z,5.10
2024-01-20T04:51:49.247Z,5.30
2024-01-20T04:54:22.683Z,4.90
2024-01-20T04:56:56.139Z,4.80
2024-01-20T04:59:29.482Z,5.10
2024-01-20T05:02:02.780Z,5.10
2024-01-20T05:04:36.257Z,4.90
2024-01-20T05:07:10.256Z,4.70
2024-01-20T05:09:43.847Z,5.10
2024-01-20T05:12:17.277Z,4.80
2024-01-20T05:14:50.640Z,4.60
2024-01-20T05:17:24.087Z,5.00
2024-01-20T05:19:57.634Z,4.90
2024-01-20T05:22:31.057Z,4.70
2024-01-20T05:25:04.855Z,4.60
2024-01-20T05:27:38.428Z,4.40
2024-01-20T05:30:14.112Z,4.90
2024-01-20T05:32:49.140Z,4.60
2024-01-20T05:35:24.090Z,4.60
2024-01-20T05:37:57.363Z,4.70
2024-01-20T05:40:30.657Z,4.50
2024-01-20T05:43:05.359Z,4.50
2024-01-20T05:45:38.781Z,4.60
2024-01-20T05:48:12.367Z,4.30
2024-01-20T05:50:46.887Z,4.40
2024-01-20T05:53:21.348Z,4.60
2024-01-20T05:55:54.750Z,4.80
2024-01-20T05:58:28.069Z,4.70
2024-01-20T06:01:01.396Z,4.20
2024-01-20T06:03:34.899Z,4.30
2024-01-20T06:06:10.264Z,4.00
2024-01-20T06:08:44.927Z,4.30
2024-01-20T06:11:18.427Z,4.50
2024-01-20T06:13:51.818Z,4.10
2024-01-20T06:16:25.111Z,4.50
2024-01-20T06:18:58.546Z,4.40
2024-01-20T06:21:31.994Z,3.80
2024-01-20T06:24:05.710Z,4.10
2024-01-20T06:26:39.007Z,4.10
2024-01-20T06:29:12.846Z,3.70
2024-01-20T06:31:46.405Z,3.90
2024-01-20T06:34:19.800Z,4.10
2024-01-20T06:36:53.431Z,4.00
2024-01-20T06:39:27.297Z,3.90
2024-01-20T06:42:00.708Z,4.10
2024-01-20T06:44:34.144Z,4.30
2024-01-20T06:47:08.335Z,4.00
2024-01-20T06:49:44.539Z,3.50
2024-01-20T06:52:17.993Z,3.90
2024-01-20T06:54:52.140Z,4.40
2024-01-20T06:57:25.504Z,3.80
2024-01-20T06:59:58.887Z,4.10
2024-01-20T07:02:34.528Z,4.10
2024-01-20T07:05:10.876Z,3.60
2024-01-20T07:07:44.631Z,3.50
2024-01-20T07:10:19.396Z,4.40
2024-01-20T07:12:52.710Z,3.90
2024-01-20T07:15:26.087Z,3.80
2024-01-20T07:18:00.742Z,4.00
2024-01-20T07:20:34.221Z,4.00
2024-01-20T07:23:08.244Z,4.00
2024-01-20T07:25:41.639Z,4.40
2024-01-20T07:28:15.275Z,4.00
2024-01-20T07:30:48.657Z,3.80
2024-01-20T07:33:22.134Z,3.80
2024-01-20T07:35:55.514Z,3.90
2024-01-20T07:38:28.991Z,4.00
2024-01-20T07:41:03.409Z,3.90
2024-01-20T07:43:36.875Z,4.10
2024-01-20T07:46:11.612Z,4.20
2024-01-20T07:48:45.195Z,4.20
2024-01-20T07:51:18.614Z,3.50
2024-01-20T07:53:51.957Z,4.30
2024-01-20T07:56:25.319Z,4.10
2024-01-20T07:58:59.017Z,4.40
2024-01-20T08:01:32.477Z,3.90
2024-01-20T08:04:06.570Z,3.50
2024-01-20T08:06:41.748Z,3.30
2024-01-20T08:09:16.167Z,3.80
2024-01-20T08:11:49.512Z,4.10
2024-01-20T08:14:22.808Z,4.00
2024-01-20T08:16:56.154Z,3.90
2024-01-20T08:19:29.633Z,3.80
2024-01-20T08:22:03.061Z,3.90
2024-01-20T08:24:36.485Z,4.30
2024-01-20T08:27:09.963Z,4.20
2024-01-20T08:29:43.349Z,3.80
2024-01-20T08:32:16.657Z,3.90
2024-01-20T08:34:50.159Z,4.30
2024-01-20T08:37:23.520Z,3.70
2024-01-20T08:39:56.844Z,4.10
2024-01-20T08:42:30.404Z,3.90
2024-01-20T08:45:04.402Z,4.20
2024-01-20T08:47:38.345Z,4.00
2024-01-20T08:50:13.112Z,4.00
2024-01-20T08:52:46.392Z,4.10
2024-01-20T08:55:19.940Z,4.00
2024-01-20T08:57:53.626Z,3.90
2024-01-20T09:00:26.951Z,3.90
2024-01-20T09:03:00.553Z,4.40
2024-01-20T09:05:38.215Z,4.10
2024-01-20T09:08:12.865Z,3.70
2024-01-20T09:10:46.406Z,3.70
2024-01-20T09:13:20.170Z,4.00
2024-01-20T09:15:53.809Z,3.80
2024-01-20T09:18:27.365Z,4.00
2024-01-20T09:21:00.917Z,3.80
2024-01-20T09:23:34.249Z,3.60
2024-01-20T09:26:07.763Z,3.90
2024-01-20T09:28:41.184Z,4.00
2024-01-20T09:31:15.071Z,3.40
2024-01-20T09:33:48.564Z,4.20
2024-01-20T09:36:22.172Z,4.20
2024-01-20T09:38:55.559Z,4.10
2024-01-20T09:41:30.375Z,4.20
2024-01-20T09:44:03.934Z,5.10
2024-01-20T09:46:38.238Z,4.20
2024-01-20T09:49:11.802Z,4.40
2024-01-20T09:51:53.919Z,4.10
2024-01-20T09:54:28.754Z,5.30
2024-01-20T09:57:02.411Z,4.10
2024-01-20T09:59:36.239Z,4.30
2024-01-20T10:02:12.634Z,4.90
2024-01-20T10:04:49.305Z,3.90
2024-01-20T10:07:33.131Z,4.60
2024-01-20T10:10:07.459Z,4.40
2024-01-20T10:12:41.009Z,4.60
2024-01-20T10:15:14.735Z,4.50
2024-01-20T10:17:48.571Z,4.40
2024-01-20T10:20:27.243Z,4.10
2024-01-20T10:23:04.819Z,4.40
2024-01-20T10:25:38.358Z,4.40
2024-01-20T10:28:13.107Z,5.20
2024-01-20T10:30:46.740Z,4.60
2024-01-20T10:33:20.281Z,4.40
2024-01-20T10:35:54.190Z,5.90
2024-01-20T10:38:30.298Z,4.50
2024-01-20T10:41:05.006Z,5.10
2024-01-20T10:43:49.368Z,4.50
2024-01-20T10:46:28.646Z,4.60
2024-01-20T10:49:06.560Z,4.20
2024-01-20T10:51:40.607Z,4.90
2024-01-20T10:54:15.170Z,4.60
2024-01-20T10:56:48.656Z,4.70
2024-01-20T10:59:25.857Z,5.10
2024-01-20T11:01:59.764Z,4.60
2024-01-20T11:04:41.647Z,4.70
2024-01-20T11:07:15.518Z,4.70
2024-01-20T11:09:59.582Z,4.60
2024-01-20T11:12:33.274Z,5.10
2024-01-20T11:15:12.835Z,4.50
2024-01-20T11:17:46.226Z,5.00
2024-01-20T11:20:20.285Z,4.20
2024-01-20T11:22:54.627Z,4.80
2024-01-20T11:25:35.089Z,4.50
2024-01-20T11:28:08.817Z,4.60
2024-01-20T11:30:42.481Z,4.30
2024-01-20T11:33:16.831Z,4.80
2024-01-20T11:35:53.263Z,4.90
2024-01-20T11:38:26.928Z,4.40
2024-01-20T11:41:04.605Z,4.20
2024-01-20T11:43:38.298Z,4.50
2024-01-20T11:46:12.357Z,4.40
2024-01-20T11:48:48.397Z,4.50
2024-01-20T11:51:23.337Z,4.50
2024-01-20T11:53:56.797Z,4.40
2024-01-20T11:56:30.127Z,4.30
2024-01-20T11:59:03.507Z,4.50
2024-01-20T12:01:38.310Z,4.20
2024-01-20T12:04:11.760Z,4.50
2024-01-20T12:06:45.223Z,4.50
2024-01-20T12:09:19.425Z,4.40
2024-01-20T12:11:52.992Z,4.20
2024-01-20T12:14:28.020Z,4.10
2024-01-20T12:17:01.520Z,4.10
2024-01-20T12:19:35.021Z,4.30
2024-01-20T12:22:09.200Z,4.70
2024-01-20T12:24:48.707Z,4.40
2024-01-20T12:27:22.065Z,4.30
2024-01-20T12:29:55.797Z,4.30
2024-01-20T12:32:29.238Z,4.10
2024-01-20T12:35:02.641Z,4.60
2024-01-20T12:37:35.956Z,4.30
2024-01-20T12:40:11.581Z,4.30
2024-01-20T12:42:45.031Z,4.40
2024-01-20T12:45:18.465Z,4.20
2024-01-20T12:47:51.897Z,4.60
2024-01-20T12:50:25.279Z,4.50
2024-01-20T12:52:58.677Z,4.50
2024-01-20T12:55:32.165Z,3.90
2024-01-20T12:58:05.694Z,4.30
2024-01-20T13:00:39.089Z,4.50
2024-01-20T13:03:12.617Z,4.40
2024-01-20T13:05:46.545Z,4.50
2024-01-20T13:08:20.491Z,4.50
2024-01-20T13:10:53.996Z,4.40
2024-01-20T13:13:29.557Z,4.20
2024-01-20T13:16:03.407Z,4.80
2024-01-20T13:18:37.022Z,4.50
2024-01-20T13:21:11.612Z,5.00
2024-01-20T13:23:47.073Z,5.70
2024-01-20T13:26:20.673Z,12.60
2024-01-20T13:28:54.763Z,12.80
2024-01-20T13:31:28.168Z,25.40
2024-01-20T13:34:01.839Z,9.40
2024-01-20T13:36:35.252Z,9.30
2024-01-20T13:39:09.343Z,14.70
2024-01-20T13:41:43.345Z,7.80
2024-01-20T13:44:16.658Z,23.90
2024-01-20T13:46:50.001Z,34.20
2024-01-20T13:49:23.483Z,39.20
2024-01-20T13:51:56.881Z,26.10
2024-01-20T13:54:30.189Z,24.20
2024-01-20T13:57:03.980Z,18.90
2024-01-20T13:59:38.241Z,34.70
2024-01-20T14:02:11.653Z,21.70
2024-01-20T14:04:46.870Z,37.90
2024-01-20T14:07:20.332Z,25.20
2024-01-20T14:09:53.723Z,33.50
2024-01-20T14:12:27.111Z,22.50
2024-01-20T14:15:00.548Z,28.80
2024-01-20T14:17:34.008Z,37.50
2024-01-20T14:20:10.181Z,21.30
2024-01-20T14:22:43.481Z,27.00
2024-01-20T14:25:17.973Z,20.90
2024-01-20T14:27:51.647Z,16.80
2024-01-20T14:30:25.054Z,24.30
2024-01-20T14:32:58.418Z,26.00
2024-01-20T14:35:31.761Z,23.30
2024-01-20T14:38:05.343Z,18.20
2024-01-20T14:40:38.767Z,16.60
2024-01-20T14:43:12.241Z,15.70
2024-01-20T14:45:46.006Z,26.00
2024-01-20T14:48:19.565Z,23.90
2024-01-20T14:50:52.946Z,26.80
2024-01-20T14:53:26.264Z,23.10
2024-01-20T14:55:59.614Z,25.30
2024-01-20T14:58:33.188Z,22.60
2024-01-20T15:01:06.687Z,20.90
2024-01-20T15:03:40.101Z,18.10
2024-01-20T15:06:14.059Z,16.40
2024-01-20T15:08:47.401Z,16.80
2024-01-20T15:11:20.928Z,17.50
2024-01-20T15:13:54.222Z,19.10
2024-01-20T15:16:27.565Z,26.80
2024-01-20T15:19:00.953Z,56.60
2024-01-20T15:21:34.528Z,77.90
2024-01-20T15:24:08.572Z,29.30
2024-01-20T15:26:41.949Z,26.10
2024-01-20T15:29:15.413Z,24.50
2024-01-20T15:31:48.717Z,20.00
2024-01-20T15:34:22.208Z,18.80
2024-01-20T15:36:55.798Z,18.30
2024-01-20T15:39:29.419Z,18.00
2024-01-20T15:42:03.213Z,16.60
2024-01-20T15:44:36.638Z,18.10
2024-01-20T15:47:10.110Z,17.20
2024-01-20T15:49:44.988Z,18.80
2024-01-20T15:52:18.569Z,17.00
2024-01-20T15:54:52.105Z,15.80
2024-01-20T15:57:25.519Z,15.40
2024-01-20T15:59:58.885Z,15.50
2024-01-20T16:02:32.209Z,15.40
2024-01-20T16:05:06.288Z,15.30
2024-01-20T16:07:39.660Z,15.20
2024-01-20T16:10:13.972Z,15.70
2024-01-20T16:12:47.393Z,16.50
2024-01-20T16:15:21.824Z,15.60
2024-01-20T16:17:55.595Z,18.70
2024-01-20T16:20:29.012Z,16.00
2024-01-20T16:23:02.327Z,14.50
2024-01-20T16:25:36.039Z,15.90
2024-01-20T16:28:10.275Z,15.20
2024-01-20T16:30:43.661Z,14.20
2024-01-20T16:33:19.062Z,12.70
2024-01-20T16:35:52.533Z,12.90
2024-01-20T16:38:25.932Z,13.40
2024-01-20T16:41:00.029Z,13.60
2024-01-20T16:43:33.549Z,13.00
2024-01-20T16:46:07.145Z,13.20
2024-01-20T16:48:40.878Z,11.60
2024-01-20T16:51:22.081Z,11.30
2024-01-20T16:53:58.102Z,11.40
2024-01-20T16:56:31.436Z,11.80
2024-01-20T16:59:04.757Z,11.50
2024-01-20T17:01:38.298Z,11.80
2024-01-20T17:04:11.791Z,11.00
2024-01-20T17:06:45.249Z,11.70
2024-01-20T17:09:18.682Z,10.60
2024-01-20T17:11:52.308Z,11.20
2024-01-20T17:14:26.129Z,10.80
2024-01-20T17:16:59.686Z,11.20
2024-01-20T17:19:33.979Z,11.10
2024-01-20T17:22:07.626Z,10.70
2024-01-20T17:24:41.658Z,10.10
2024-01-20T17:27:15.043Z,10.50
2024-01-20T17:29:49.031Z,10.80
2024-01-20T17:32:22.357Z,10.80
2024-01-20T17:34:56.119Z,11.40
2024-01-20T17:37:29.820Z,10.00
2024-01-20T17:40:04.518Z,9.90
2024-01-20T17:42:37.957Z,9.40
2024-01-20T17:45:12.630Z,10.10
2024-01-20T17:47:47.152Z,10.80
2024-01-20T17:50:20.755Z,11.70
2024-01-20T17:52:54.268Z,11.00
2024-01-20T17:55:31.396Z,11.40
2024-01-20T17:58:05.057Z,11.50
2024-01-20T18:00:39.856Z,11.90
2024-01-20T18:03:13.305Z,11.50
2024-01-20T18:05:47.013Z,10.40
2024-01-20T18:08:20.659Z,10.30
2024-01-20T18:10:55.190Z,11.90
2024-01-20T18:13:28.681Z,10.40
2024-01-20T18:16:02.195Z,10.00
2024-01-20T18:18:35.719Z,9.40
2024-01-20T18:21:10.675Z,9.80
2024-01-20T18:23:44.373Z,9.90
2024-01-20T18:26:17.652Z,10.10
2024-01-20T18:28:51.143Z,10.00
2024-01-20T18:31:24.570Z,9.20
2024-01-20T18:33:58.834Z,9.90
2024-01-20T18:36:32.266Z,8.90
2024-01-20T18:39:05.791Z,9.30
2024-01-20T18:41:39.232Z,10.60
2024-01-20T18:44:12.563Z,9.50
2024-01-20T18:47:11.970Z,10.20
2024-01-20T18:49:45.596Z,10.40
2024-01-20T18:52:19.157Z,10.50
2024-01-20T18:54:54.951Z,10.50
2024-01-20T18:57:28.598Z,11.30
2024-01-20T19:00:02.358Z,10.40
2024-01-20T19:02:35.959Z,10.30
2024-01-20T19:05:09.734Z,9.60
2024-01-20T19:07:43.211Z,9.30
2024-01-20T19:10:17.082Z,10.50
2024-01-20T19:12:50.531Z,9.30
2024-01-20T19:15:24.226Z,9.40
2024-01-20T19:17:57.797Z,9.30
2024-01-20T19:20:33.513Z,8.70
2024-01-20T19:23:07.049Z,9.80
2024-01-20T19:25:40.473Z,9.70
2024-01-20T19:28:13.831Z,9.90
2024-01-20T19:30:47.222Z,10.00
2024-01-20T19:33:20.707Z,9.20
2024-01-20T19:35:54.268Z,9.80
2024-01-20T19:38:27.646Z,9.60
2024-01-20T19:41:01.032Z,9.50
2024-01-20T19:43:36.285Z,9.60
2024-01-20T19:46:10.062Z,9.10
2024-01-20T19:48:43.493Z,9.00
2024-01-20T19:51:19.862Z,9.40
2024-01-20T19:53:53.234Z,9.10
2024-01-20T19:56:26.639Z,9.30
2024-01-20T19:58:59.940Z,9.70
2024-01-20T20:01:33.285Z,14.10
2024-01-20T20:04:07.365Z,12.20
2024-01-20T20:06:40.799Z,10.10
2024-01-20T20:09:14.470Z,9.70
2024-01-20T20:11:48.389Z,10.40
2024-01-20T20:14:24.482Z,9.70
2024-01-20T20:16:58.541Z,10.60
2024-01-20T20:19:33.136Z,10.00
2024-01-20T20:22:10.129Z,10.00
2024-01-20T20:24:45.891Z,10.20
2024-01-20T20:27:20.920Z,9.90
2024-01-20T20:29:54.606Z,10.10
2024-01-20T20:32:28.129Z,10.20
2024-01-20T20:35:01.538Z,10.00
2024-01-20T20:37:34.931Z,10.90
2024-01-20T20:40:11.840Z,10.80
2024-01-20T20:42:45.271Z,10.90
2024-01-20T20:45:18.741Z,10.90
2024-01-20T20:47:52.184Z,10.90
2024-01-20T20:50:25.524Z,10.90
2024-01-20T20:52:58.976Z,10.70
2024-01-20T20:55:32.340Z,11.00
2024-01-20T20:58:05.847Z,11.50
2024-01-20T21:00:39.254Z,10.50
2024-01-20T21:03:12.894Z,10.30
2024-01-20T21:05:48.991Z,11.00
2024-01-20T21:08:22.351Z,11.00
2024-01-20T21:10:56.267Z,10.60
2024-01-20T21:13:29.638Z,11.20
2024-01-20T21:16:02.912Z,10.10
2024-01-20T21:18:36.655Z,10.60
2024-01-20T21:21:10.707Z,10.80
2024-01-20T21:23:45.934Z,11.20
2024-01-20T21:26:24.918Z,11.30
2024-01-20T21:28:58.304Z,10.30
2024-01-20T21:31:31.758Z,11.10
2024-01-20T21:34:05.084Z,10.60
2024-01-20T21:36:38.510Z,10.20
2024-01-20T21:39:13.216Z,10.60
2024-01-20T21:41:46.658Z,10.60
2024-01-20T21:44:20.073Z,10.50
2024-01-20T21:46:53.361Z,11.50
2024-01-20T21:49:27.183Z,11.00
2024-01-20T21:52:00.565Z,10.90
2024-01-20T21:54:34.019Z,9.90
2024-01-20T21:57:07.831Z,10.50
2024-01-20T21:59:41.173Z,10.10
2024-01-20T22:02:15.127Z,11.60
2024-01-20T22:04:48.476Z,10.10
2024-01-20T22:07:21.921Z,10.20
2024-01-20T22:09:56.443Z,11.30
2024-01-20T22:12:29.737Z,10.50
2024-01-20T22:15:03.920Z,11.30
2024-01-20T22:17:37.487Z,10.20
2024-01-20T22:20:14.440Z,11.20
2024-01-20T22:22:48.388Z,11.10
2024-01-20T22:25:22.178Z,10.90
2024-01-20T22:27:56.507Z,10.40
2024-01-20T22:30:29.960Z,10.90
2024-01-20T22:33:05.180Z,10.20
2024-01-20T22:35:38.630Z,10.70
2024-01-20T22:38:11.954Z,9.90
2024-01-20T22:40:45.447Z,10.20
2024-01-20T22:43:18.809Z,10.90
2024-01-20T22:45:52.215Z,10.80
2024-01-20T22:48:25.670Z,10.00
2024-01-20T22:50:59.120Z,10.10
2024-01-20T22:53:34.104Z,10.30
2024-01-20T22:56:08.000Z,9.50
2024-01-20T22:58:41.561Z,10.60
2024-01-20T23:01:17.265Z,10.70
2024-01-20T23:03:50.931Z,10.40
2024-01-20T23:06:24.554Z,10.80
2024-01-20T23:08:58.085Z,10.30
2024-01-20T23:11:31.431Z,10.60
2024-01-20T23:14:04.754Z,17.20
2024-01-20T23:16:38.067Z,16.90
2024-01-20T23:19:12.319Z,13.10
2024-01-20T23:21:45.829Z,12.40
2024-01-20T23:24:19.187Z,11.70
2024-01-20T23:26:52.477Z,11.50
2024-01-20T23:29:26.198Z,11.80
2024-01-20T23:31:59.492Z,11.10
2024-01-20T23:34:33.509Z,11.10
2024-01-20T23:37:06.979Z,10.60
2024-01-20T23:39:40.295Z,10.40
2024-01-20T23:42:13.703Z,11.10
2024-01-20T23:44:47.114Z,10.80
2024-01-20T23:47:20.532Z,11.00
2024-01-20T23:49:53.769Z,10.30
2024-01-20T23:52:27.173Z,10.40
2024-01-20T23:55:00.529Z,10.70
2024-01-20T23:57:34.253Z,10.40
